sensor_id;sensor_type;location;lat;lon;timestamp;temperature;humidity
52787;DHT22;38661;53.152;5.846;2022-08-19T00:01:54;16.80;84.30
52787;DHT22;38661;53.152;5.846;2022-08-19T00:04:23;16.70;84.30
52787;DHT22;38661;53.152;5.846;2022-08-19T00:06:50;16.70;84.40
52787;DHT22;38661;53.152;5.846;2022-08-19T00:09:17;16.70;84.60
52787;DHT22;38661;53.152;5.846;2022-08-19T00:11:44;16.70;84.60
52787;DHT22;38661;53.152;5.846;2022-08-19T00:14:13;16.70;84.70
52787;DHT22;38661;53.152;5.846;2022-08-19T00:16:41;16.60;84.80
52787;DHT22;38661;53.152;5.846;2022-08-19T00:19:07;16.60;84.80
52787;DHT22;38661;53.152;5.846;2022-08-19T00:21:33;16.50;85.00
52787;DHT22;38661;53.152;5.846;2022-08-19T00:24:04;16.50;85.00
52787;DHT22;38661;53.152;5.846;2022-08-19T00:26:30;16.50;85.10
52787;DHT22;38661;53.152;5.846;2022-08-19T00:28:56;16.50;85.10
52787;DHT22;38661;53.152;5.846;2022-08-19T00:31:22;16.50;85.60
52787;DHT22;38661;53.152;5.846;2022-08-19T00:33:47;16.40;85.60
52787;DHT22;38661;53.152;5.846;2022-08-19T00:36:16;16.40;85.70
52787;DHT22;38661;53.152;5.846;2022-08-19T00:38:42;16.40;85.70
52787;DHT22;38661;53.152;5.846;2022-08-19T00:41:10;16.40;86.00
52787;DHT22;38661;53.152;5.846;2022-08-19T00:43:37;16.40;86.50
52787;DHT22;38661;53.152;5.846;2022-08-19T00:46:04;16.40;86.80
52787;DHT22;38661;53.152;5.846;2022-08-19T00:48:30;16.40;86.50
52787;DHT22;38661;53.152;5.846;2022-08-19T00:50:57;16.30;86.50
52787;DHT22;38661;53.152;5.846;2022-08-19T00:53:26;16.40;86.60
52787;DHT22;38661;53.152;5.846;2022-08-19T00:55:55;16.40;86.70
52787;DHT22;38661;53.152;5.846;2022-08-19T00:58:25;16.30;86.30
52787;DHT22;38661;53.152;5.846;2022-08-19T01:00:53;16.30;86.20
52787;DHT22;38661;53.152;5.846;2022-08-19T01:03:21;16.30;86.20
52787;DHT22;38661;53.152;5.846;2022-08-19T01:05:47;16.30;86.30
52787;DHT22;38661;53.152;5.846;2022-08-19T01:08:15;16.30;86.20
52787;DHT22;38661;53.152;5.846;2022-08-19T01:10:45;16.20;86.20
52787;DHT22;38661;53.152;5.846;2022-08-19T01:13:13;16.30;86.20
52787;DHT22;38661;53.152;5.846;2022-08-19T01:15:44;16.20;86.10
52787;DHT22;38661;53.152;5.846;2022-08-19T01:18:12;16.20;86.20
52787;DHT22;38661;53.152;5.846;2022-08-19T01:20:40;16.20;86.20
52787;DHT22;38661;53.152;5.846;2022-08-19T01:23:07;16.20;86.20
52787;DHT22;38661;53.152;5.846;2022-08-19T01:25:42;16.20;86.10
52787;DHT22;38661;53.152;5.846;2022-08-19T01:28:27;16.20;86.20
52787;DHT22;38661;53.152;5.846;2022-08-19T01:30:53;16.20;86.60
52787;DHT22;38661;53.152;5.846;2022-08-19T01:33:20;16.20;86.60
52787;DHT22;38661;53.152;5.846;2022-08-19T01:35:46;16.20;86.60
52787;DHT22;38661;53.152;5.846;2022-08-19T01:38:26;16.20;86.70
52787;DHT22;38661;53.152;5.846;2022-08-19T01:40:52;16.20;86.60
52787;DHT22;38661;53.152;5.846;2022-08-19T01:43:18;16.20;86.60
52787;DHT22;38661;53.152;5.846;2022-08-19T01:45:45;16.20;86.90
52787;DHT22;38661;53.152;5.846;2022-08-19T01:48:11;16.20;86.60
52787;DHT22;38661;53.152;5.846;2022-08-19T01:50:38;16.10;86.70
52787;DHT22;38661;53.152;5.846;2022-08-19T01:53:06;16.20;86.80
52787;DHT22;38661;53.152;5.846;2022-08-19T01:55:34;16.20;86.60
52787;DHT22;38661;53.152;5.846;2022-08-19T01:58:02;16.20;86.70
52787;DHT22;38661;53.152;5.846;2022-08-19T02:00:30;16.20;86.70
52787;DHT22;38661;53.152;5.846;2022-08-19T02:02:56;16.20;87.00
52787;DHT22;38661;53.152;5.846;2022-08-19T02:05:23;16.20;87.20
52787;DHT22;38661;53.152;5.846;2022-08-19T02:07:48;16.20;87.10
52787;DHT22;38661;53.152;5.846;2022-08-19T02:10:18;16.20;87.50
52787;DHT22;38661;53.152;5.846;2022-08-19T02:12:45;16.20;87.30
52787;DHT22;38661;53.152;5.846;2022-08-19T02:15:11;16.20;87.40
52787;DHT22;38661;53.152;5.846;2022-08-19T02:17:37;16.10;87.50
52787;DHT22;38661;53.152;5.846;2022-08-19T02:20:04;16.20;87.60
52787;DHT22;38661;53.152;5.846;2022-08-19T02:22:31;16.20;87.40
52787;DHT22;38661;53.152;5.846;2022-08-19T02:24:57;16.20;87.90
52787;DHT22;38661;53.152;5.846;2022-08-19T02:27:23;16.10;88.00
52787;DHT22;38661;53.152;5.846;2022-08-19T02:29:50;16.20;87.90
52787;DHT22;38661;53.152;5.846;2022-08-19T02:32:17;16.10;88.00
52787;DHT22;38661;53.152;5.846;2022-08-19T02:34:44;16.10;88.10
52787;DHT22;38661;53.152;5.846;2022-08-19T02:37:09;16.10;88.00
52787;DHT22;38661;53.152;5.846;2022-08-19T02:39:55;16.10;88.00
52787;DHT22;38661;53.152;5.846;2022-08-19T02:42:21;16.10;88.10
52787;DHT22;38661;53.152;5.846;2022-08-19T02:44:47;16.10;88.00
52787;DHT22;38661;53.152;5.846;2022-08-19T02:47:13;16.10;88.20
52787;DHT22;38661;53.152;5.846;2022-08-19T02:49:40;16.00;88.80
52787;DHT22;38661;53.152;5.846;2022-08-19T02:52:06;16.00;88.90
52787;DHT22;38661;53.152;5.846;2022-08-19T02:54:32;16.00;88.80
52787;DHT22;38661;53.152;5.846;2022-08-19T02:56:58;16.00;89.20
52787;DHT22;38661;53.152;5.846;2022-08-19T02:59:24;16.00;89.50
52787;DHT22;38661;53.152;5.846;2022-08-19T03:01:52;15.90;89.50
52787;DHT22;38661;53.152;5.846;2022-08-19T03:04:17;15.90;89.20
52787;DHT22;38661;53.152;5.846;2022-08-19T03:06:46;15.90;88.90
52787;DHT22;38661;53.152;5.846;2022-08-19T03:09:13;15.90;90.10
52787;DHT22;38661;53.152;5.846;2022-08-19T03:11:39;15.80;89.70
52787;DHT22;38661;53.152;5.846;2022-08-19T03:14:06;15.80;90.00
52787;DHT22;38661;53.152;5.846;2022-08-19T03:16:34;15.80;89.50
52787;DHT22;38661;53.152;5.846;2022-08-19T03:19:01;15.70;89.60
52787;DHT22;38661;53.152;5.846;2022-08-19T03:21:30;15.70;89.60
52787;DHT22;38661;53.152;5.846;2022-08-19T03:23:58;15.70;89.50
52787;DHT22;38661;53.152;5.846;2022-08-19T03:26:25;15.70;89.20
52787;DHT22;38661;53.152;5.846;2022-08-19T03:28:50;15.70;89.60
52787;DHT22;38661;53.152;5.846;2022-08-19T03:31:21;15.70;89.40
52787;DHT22;38661;53.152;5.846;2022-08-19T03:33:49;15.60;89.50
52787;DHT22;38661;53.152;5.846;2022-08-19T03:36:21;15.60;89.90
52787;DHT22;38661;53.152;5.846;2022-08-19T03:38:59;15.50;90.20
52787;DHT22;38661;53.152;5.846;2022-08-19T03:41:28;15.50;90.20
52787;DHT22;38661;53.152;5.846;2022-08-19T03:43:54;15.50;90.20
52787;DHT22;38661;53.152;5.846;2022-08-19T03:46:25;15.50;90.60
52787;DHT22;38661;53.152;5.846;2022-08-19T03:48:54;15.50;90.30
52787;DHT22;38661;53.152;5.846;2022-08-19T03:51:23;15.50;90.20
52787;DHT22;38661;53.152;5.846;2022-08-19T03:53:50;15.50;90.80
52787;DHT22;38661;53.152;5.846;2022-08-19T03:56:16;15.50;90.70
52787;DHT22;38661;53.152;5.846;2022-08-19T03:58:43;15.50;90.40
52787;DHT22;38661;53.152;5.846;2022-08-19T04:01:11;15.50;90.30
52787;DHT22;38661;53.152;5.846;2022-08-19T04:03:38;15.50;90.20
52787;DHT22;38661;53.152;5.846;2022-08-19T04:06:16;15.60;90.20
52787;DHT22;38661;53.152;5.846;2022-08-19T04:08:44;15.60;90.90
52787;DHT22;38661;53.152;5.846;2022-08-19T04:11:13;15.60;90.70
52787;DHT22;38661;53.152;5.846;2022-08-19T04:13:40;15.60;90.60
52787;DHT22;38661;53.152;5.846;2022-08-19T04:16:06;15.60;90.50
52787;DHT22;38661;53.152;5.846;2022-08-19T04:18:33;15.70;90.40
52787;DHT22;38661;53.152;5.846;2022-08-19T04:20:59;15.70;90.20
52787;DHT22;38661;53.152;5.846;2022-08-19T04:23:25;15.70;90.10
52787;DHT22;38661;53.152;5.846;2022-08-19T04:25:54;15.70;90.10
52787;DHT22;38661;53.152;5.846;2022-08-19T04:28:20;15.70;90.10
52787;DHT22;38661;53.152;5.846;2022-08-19T04:30:49;15.70;90.00
52787;DHT22;38661;53.152;5.846;2022-08-19T04:33:17;15.70;90.10
52787;DHT22;38661;53.152;5.846;2022-08-19T04:35:46;15.70;90.00
52787;DHT22;38661;53.152;5.846;2022-08-19T04:38:15;15.70;89.90
52787;DHT22;38661;53.152;5.846;2022-08-19T04:40:47;15.60;89.70
52787;DHT22;38661;53.152;5.846;2022-08-19T04:43:32;15.70;89.70
52787;DHT22;38661;53.152;5.846;2022-08-19T04:46:05;15.60;89.50
52787;DHT22;38661;53.152;5.846;2022-08-19T04:48:31;15.50;89.40
52787;DHT22;38661;53.152;5.846;2022-08-19T04:50:58;15.50;89.50
52787;DHT22;38661;53.152;5.846;2022-08-19T04:53:25;15.50;89.40
52787;DHT22;38661;53.152;5.846;2022-08-19T04:55:52;15.50;89.60
52787;DHT22;38661;53.152;5.846;2022-08-19T04:58:18;15.50;89.70
52787;DHT22;38661;53.152;5.846;2022-08-19T05:00:43;15.50;89.90
52787;DHT22;38661;53.152;5.846;2022-08-19T05:03:10;15.50;90.00
52787;DHT22;38661;53.152;5.846;2022-08-19T05:05:43;15.40;90.10
52787;DHT22;38661;53.152;5.846;2022-08-19T05:08:09;15.40;90.30
52787;DHT22;38661;53.152;5.846;2022-08-19T05:10:39;15.40;90.30
52787;DHT22;38661;53.152;5.846;2022-08-19T05:13:05;15.50;89.90
52787;DHT22;38661;53.152;5.846;2022-08-19T05:15:31;15.50;90.40
52787;DHT22;38661;53.152;5.846;2022-08-19T05:17:57;15.60;90.60
52787;DHT22;38661;53.152;5.846;2022-08-19T05:20:41;15.60;91.10
52787;DHT22;38661;53.152;5.846;2022-08-19T05:23:25;15.70;91.50
52787;DHT22;38661;53.152;5.846;2022-08-19T05:25:51;15.70;91.20
52787;DHT22;38661;53.152;5.846;2022-08-19T05:28:19;15.80;91.80
52787;DHT22;38661;53.152;5.846;2022-08-19T05:30:45;15.80;91.20
52787;DHT22;38661;53.152;5.846;2022-08-19T05:33:11;15.90;90.90
52787;DHT22;38661;53.152;5.846;2022-08-19T05:35:40;16.00;91.70
52787;DHT22;38661;53.152;5.846;2022-08-19T05:38:07;16.00;92.40
52787;DHT22;38661;53.152;5.846;2022-08-19T05:40:39;16.10;93.40
52787;DHT22;38661;53.152;5.846;2022-08-19T05:43:06;16.20;93.50
52787;DHT22;38661;53.152;5.846;2022-08-19T05:45:39;16.30;93.80
52787;DHT22;38661;53.152;5.846;2022-08-19T05:48:05;16.30;93.30
52787;DHT22;38661;53.152;5.846;2022-08-19T05:50:31;16.40;93.60
52787;DHT22;38661;53.152;5.846;2022-08-19T05:52:56;16.40;93.00
52787;DHT22;38661;53.152;5.846;2022-08-19T05:55:22;16.50;93.30
52787;DHT22;38661;53.152;5.846;2022-08-19T05:57:48;16.60;93.10
52787;DHT22;38661;53.152;5.846;2022-08-19T06:00:14;16.60;93.40
52787;DHT22;38661;53.152;5.846;2022-08-19T06:02:40;16.70;92.60
52787;DHT22;38661;53.152;5.846;2022-08-19T06:05:06;16.80;93.50
52787;DHT22;38661;53.152;5.846;2022-08-19T06:07:38;16.90;93.40
52787;DHT22;38661;53.152;5.846;2022-08-19T06:10:07;16.90;92.70
52787;DHT22;38661;53.152;5.846;2022-08-19T06:12:34;17.00;93.10
52787;DHT22;38661;53.152;5.846;2022-08-19T06:15:04;17.10;92.50
52787;DHT22;38661;53.152;5.846;2022-08-19T06:17:31;17.20;92.60
52787;DHT22;38661;53.152;5.846;2022-08-19T06:19:57;17.30;93.00
52787;DHT22;38661;53.152;5.846;2022-08-19T06:22:23;17.40;92.70
52787;DHT22;38661;53.152;5.846;2022-08-19T06:24:49;17.50;92.70
52787;DHT22;38661;53.152;5.846;2022-08-19T06:27:18;17.50;93.00
52787;DHT22;38661;53.152;5.846;2022-08-19T06:29:44;17.50;92.70
52787;DHT22;38661;53.152;5.846;2022-08-19T06:32:14;17.70;92.30
52787;DHT22;38661;53.152;5.846;2022-08-19T06:34:40;17.70;92.20
52787;DHT22;38661;53.152;5.846;2022-08-19T06:37:07;17.80;92.20
52787;DHT22;38661;53.152;5.846;2022-08-19T06:39:38;17.90;92.00
52787;DHT22;38661;53.152;5.846;2022-08-19T06:42:05;18.00;91.70
52787;DHT22;38661;53.152;5.846;2022-08-19T06:44:34;18.00;91.80
52787;DHT22;38661;53.152;5.846;2022-08-19T06:47:07;18.10;91.80
52787;DHT22;38661;53.152;5.846;2022-08-19T06:49:33;18.20;91.40
52787;DHT22;38661;53.152;5.846;2022-08-19T06:51:59;18.30;91.10
52787;DHT22;38661;53.152;5.846;2022-08-19T06:54:26;18.40;91.50
52787;DHT22;38661;53.152;5.846;2022-08-19T06:56:54;18.40;91.10
52787;DHT22;38661;53.152;5.846;2022-08-19T06:59:21;18.50;91.10
52787;DHT22;38661;53.152;5.846;2022-08-19T07:01:53;18.60;91.60
52787;DHT22;38661;53.152;5.846;2022-08-19T07:04:26;18.70;91.30
52787;DHT22;38661;53.152;5.846;2022-08-19T07:07:00;18.80;91.10
52787;DHT22;38661;53.152;5.846;2022-08-19T07:09:27;18.90;90.90
52787;DHT22;38661;53.152;5.846;2022-08-19T07:11:53;18.90;90.80
52787;DHT22;38661;53.152;5.846;2022-08-19T07:14:23;19.00;90.60
52787;DHT22;38661;53.152;5.846;2022-08-19T07:16:52;19.20;90.50
52787;DHT22;38661;53.152;5.846;2022-08-19T07:19:20;19.30;90.70
52787;DHT22;38661;53.152;5.846;2022-08-19T07:21:48;19.40;90.50
52787;DHT22;38661;53.152;5.846;2022-08-19T07:24:15;19.50;89.90
52787;DHT22;38661;53.152;5.846;2022-08-19T07:26:42;19.70;90.10
52787;DHT22;38661;53.152;5.846;2022-08-19T07:29:09;19.70;90.00
52787;DHT22;38661;53.152;5.846;2022-08-19T07:31:35;19.90;89.80
52787;DHT22;38661;53.152;5.846;2022-08-19T07:34:07;19.90;89.40
52787;DHT22;38661;53.152;5.846;2022-08-19T07:36:36;19.90;89.50
52787;DHT22;38661;53.152;5.846;2022-08-19T07:39:06;20.00;89.30
52787;DHT22;38661;53.152;5.846;2022-08-19T07:41:34;20.10;89.20
52787;DHT22;38661;53.152;5.846;2022-08-19T07:44:00;20.20;89.00
52787;DHT22;38661;53.152;5.846;2022-08-19T07:46:31;20.30;88.90
52787;DHT22;38661;53.152;5.846;2022-08-19T07:48:57;20.40;88.80
52787;DHT22;38661;53.152;5.846;2022-08-19T07:51:22;20.50;88.70
52787;DHT22;38661;53.152;5.846;2022-08-19T07:53:49;20.60;88.50
52787;DHT22;38661;53.152;5.846;2022-08-19T07:56:17;20.60;88.30
52787;DHT22;38661;53.152;5.846;2022-08-19T07:58:45;20.70;88.10
52787;DHT22;38661;53.152;5.846;2022-08-19T08:01:17;20.80;88.00
52787;DHT22;38661;53.152;5.846;2022-08-19T08:03:44;20.90;87.90
52787;DHT22;38661;53.152;5.846;2022-08-19T08:06:28;21.00;87.90
52787;DHT22;38661;53.152;5.846;2022-08-19T08:09:13;21.10;87.50
52787;DHT22;38661;53.152;5.846;2022-08-19T08:11:54;21.20;87.40
52787;DHT22;38661;53.152;5.846;2022-08-19T08:14:32;21.30;86.50
52787;DHT22;38661;53.152;5.846;2022-08-19T08:16:58;21.30;86.80
52787;DHT22;38661;53.152;5.846;2022-08-19T08:19:25;21.40;86.50
52787;DHT22;38661;53.152;5.846;2022-08-19T08:21:56;21.50;86.30
52787;DHT22;38661;53.152;5.846;2022-08-19T08:24:22;21.60;85.60
52787;DHT22;38661;53.152;5.846;2022-08-19T08:26:48;21.70;85.60
52787;DHT22;38661;53.152;5.846;2022-08-19T08:29:14;21.70;85.40
52787;DHT22;38661;53.152;5.846;2022-08-19T08:31:42;21.80;84.90
52787;DHT22;38661;53.152;5.846;2022-08-19T08:34:08;21.90;84.80
52787;DHT22;38661;53.152;5.846;2022-08-19T08:36:38;21.90;84.60
52787;DHT22;38661;53.152;5.846;2022-08-19T08:39:09;22.00;84.40
52787;DHT22;38661;53.152;5.846;2022-08-19T08:44:15;22.20;82.90
52787;DHT22;38661;53.152;5.846;2022-08-19T08:46:49;22.30;82.30
52787;DHT22;38661;53.152;5.846;2022-08-19T08:52:04;22.40;80.80
52787;DHT22;38661;53.152;5.846;2022-08-19T08:54:38;22.50;79.80
52787;DHT22;38661;53.152;5.846;2022-08-19T08:57:12;22.60;80.10
52787;DHT22;38661;53.152;5.846;2022-08-19T08:59:40;22.80;80.10
52787;DHT22;38661;53.152;5.846;2022-08-19T09:02:07;22.90;79.70
52787;DHT22;38661;53.152;5.846;2022-08-19T09:04:37;23.10;79.30
52787;DHT22;38661;53.152;5.846;2022-08-19T09:07:26;23.20;79.00
52787;DHT22;38661;53.152;5.846;2022-08-19T09:10:19;23.20;78.60
52787;DHT22;38661;53.152;5.846;2022-08-19T09:15:36;23.20;77.20
52787;DHT22;38661;53.152;5.846;2022-08-19T09:18:03;23.30;77.70
52787;DHT22;38661;53.152;5.846;2022-08-19T09:20:30;23.40;77.20
52787;DHT22;38661;53.152;5.846;2022-08-19T09:22:56;23.60;77.60
52787;DHT22;38661;53.152;5.846;2022-08-19T09:25:24;23.80;77.50
52787;DHT22;38661;53.152;5.846;2022-08-19T09:27:51;23.90;76.60
52787;DHT22;38661;53.152;5.846;2022-08-19T09:30:21;23.90;75.80
52787;DHT22;38661;53.152;5.846;2022-08-19T09:32:47;23.80;76.00
52787;DHT22;38661;53.152;5.846;2022-08-19T09:35:14;23.70;76.20
52787;DHT22;38661;53.152;5.846;2022-08-19T09:37:42;23.60;76.50
52787;DHT22;38661;53.152;5.846;2022-08-19T09:40:09;23.60;76.90
52787;DHT22;38661;53.152;5.846;2022-08-19T09:42:36;23.70;76.60
52787;DHT22;38661;53.152;5.846;2022-08-19T09:45:03;23.90;75.90
52787;DHT22;38661;53.152;5.846;2022-08-19T09:47:29;24.00;75.00
52787;DHT22;38661;53.152;5.846;2022-08-19T09:49:54;24.20;74.50
52787;DHT22;38661;53.152;5.846;2022-08-19T09:52:20;24.30;73.60
52787;DHT22;38661;53.152;5.846;2022-08-19T09:54:46;24.30;74.10
52787;DHT22;38661;53.152;5.846;2022-08-19T09:57:12;24.20;73.40
52787;DHT22;38661;53.152;5.846;2022-08-19T09:59:39;24.10;74.00
52787;DHT22;38661;53.152;5.846;2022-08-19T10:02:05;24.00;74.00
52787;DHT22;38661;53.152;5.846;2022-08-19T10:04:31;23.90;74.80
52787;DHT22;38661;53.152;5.846;2022-08-19T10:07:15;23.90;74.80
52787;DHT22;38661;53.152;5.846;2022-08-19T10:09:41;24.10;74.30
52787;DHT22;38661;53.152;5.846;2022-08-19T10:12:07;24.20;74.50
52787;DHT22;38661;53.152;5.846;2022-08-19T10:14:34;24.20;74.20
52787;DHT22;38661;53.152;5.846;2022-08-19T10:17:01;24.20;74.10
52787;DHT22;38661;53.152;5.846;2022-08-19T10:19:28;24.30;73.90
52787;DHT22;38661;53.152;5.846;2022-08-19T10:21:58;24.40;73.50
52787;DHT22;38661;53.152;5.846;2022-08-19T10:24:23;24.50;73.70
52787;DHT22;38661;53.152;5.846;2022-08-19T10:26:51;24.60;72.80
52787;DHT22;38661;53.152;5.846;2022-08-19T10:29:17;24.70;72.50
52787;DHT22;38661;53.152;5.846;2022-08-19T10:31:42;24.80;72.80
52787;DHT22;38661;53.152;5.846;2022-08-19T10:34:08;24.70;72.70
52787;DHT22;38661;53.152;5.846;2022-08-19T10:36:36;24.60;72.30
52787;DHT22;38661;53.152;5.846;2022-08-19T10:39:08;24.50;72.30
52787;DHT22;38661;53.152;5.846;2022-08-19T10:41:36;24.50;72.60
52787;DHT22;38661;53.152;5.846;2022-08-19T10:44:09;24.50;73.20
52787;DHT22;38661;53.152;5.846;2022-08-19T10:46:43;24.70;73.20
52787;DHT22;38661;53.152;5.846;2022-08-19T10:49:10;25.00;73.10
52787;DHT22;38661;53.152;5.846;2022-08-19T10:51:38;25.30;72.60
52787;DHT22;38661;53.152;5.846;2022-08-19T10:54:22;25.30;70.70
52787;DHT22;38661;53.152;5.846;2022-08-19T10:56:48;25.30;70.50
52787;DHT22;38661;53.152;5.846;2022-08-19T10:59:22;25.10;69.80
52787;DHT22;38661;53.152;5.846;2022-08-19T11:01:49;25.00;70.10
52787;DHT22;38661;53.152;5.846;2022-08-19T11:04:16;24.90;71.00
52787;DHT22;38661;53.152;5.846;2022-08-19T11:06:47;24.90;71.00
52787;DHT22;38661;53.152;5.846;2022-08-19T11:09:21;25.00;71.40
52787;DHT22;38661;53.152;5.846;2022-08-19T11:11:50;25.30;68.10
52787;DHT22;38661;53.152;5.846;2022-08-19T11:14:19;25.60;68.30
52787;DHT22;38661;53.152;5.846;2022-08-19T11:16:47;25.70;64.50
52787;DHT22;38661;53.152;5.846;2022-08-19T11:19:13;25.80;66.30
52787;DHT22;38661;53.152;5.846;2022-08-19T11:21:43;25.70;66.80
52787;DHT22;38661;53.152;5.846;2022-08-19T11:24:16;25.60;68.00
52787;DHT22;38661;53.152;5.846;2022-08-19T11:26:43;25.30;69.40
52787;DHT22;38661;53.152;5.846;2022-08-19T11:29:11;25.30;69.60
52787;DHT22;38661;53.152;5.846;2022-08-19T11:31:40;25.30;69.90
52787;DHT22;38661;53.152;5.846;2022-08-19T11:34:11;25.40;70.30
52787;DHT22;38661;53.152;5.846;2022-08-19T11:36:40;25.50;69.40
52787;DHT22;38661;53.152;5.846;2022-08-19T11:39:07;25.40;68.50
52787;DHT22;38661;53.152;5.846;2022-08-19T11:41:33;25.40;69.10
52787;DHT22;38661;53.152;5.846;2022-08-19T11:43:59;25.20;69.70
52787;DHT22;38661;53.152;5.846;2022-08-19T11:46:26;25.10;70.30
52787;DHT22;38661;53.152;5.846;2022-08-19T11:48:58;25.00;71.00
52787;DHT22;38661;53.152;5.846;2022-08-19T11:51:25;24.90;71.50
52787;DHT22;38661;53.152;5.846;2022-08-19T11:53:52;24.90;71.30
52787;DHT22;38661;53.152;5.846;2022-08-19T11:56:19;24.80;71.50
52787;DHT22;38661;53.152;5.846;2022-08-19T11:58:46;24.80;71.30
52787;DHT22;38661;53.152;5.846;2022-08-19T12:01:15;24.80;71.50
52787;DHT22;38661;53.152;5.846;2022-08-19T12:03:42;24.90;71.40
52787;DHT22;38661;53.152;5.846;2022-08-19T12:06:10;24.80;71.10
52787;DHT22;38661;53.152;5.846;2022-08-19T12:08:39;24.70;70.90
52787;DHT22;38661;53.152;5.846;2022-08-19T12:11:06;24.70;70.40
52787;DHT22;38661;53.152;5.846;2022-08-19T12:13:34;24.70;70.90
52787;DHT22;38661;53.152;5.846;2022-08-19T12:16:00;24.90;70.90
52787;DHT22;38661;53.152;5.846;2022-08-19T12:18:32;24.90;70.90
52787;DHT22;38661;53.152;5.846;2022-08-19T12:20:57;24.90;69.50
52787;DHT22;38661;53.152;5.846;2022-08-19T12:23:26;24.80;69.70
52787;DHT22;38661;53.152;5.846;2022-08-19T12:25:52;24.80;70.00
52787;DHT22;38661;53.152;5.846;2022-08-19T12:28:25;24.70;70.40
52787;DHT22;38661;53.152;5.846;2022-08-19T12:30:51;24.50;71.30
52787;DHT22;38661;53.152;5.846;2022-08-19T12:33:20;24.50;72.30
52787;DHT22;38661;53.152;5.846;2022-08-19T12:35:49;24.40;74.00
52787;DHT22;38661;53.152;5.846;2022-08-19T12:38:16;24.50;74.20
52787;DHT22;38661;53.152;5.846;2022-08-19T12:40:45;24.40;72.70
52787;DHT22;38661;53.152;5.846;2022-08-19T12:43:11;24.50;72.40
52787;DHT22;38661;53.152;5.846;2022-08-19T12:45:37;24.60;71.60
52787;DHT22;38661;53.152;5.846;2022-08-19T12:48:03;24.60;71.20
52787;DHT22;38661;53.152;5.846;2022-08-19T12:50:30;24.70;70.80
52787;DHT22;38661;53.152;5.846;2022-08-19T12:52:57;24.60;70.80
52787;DHT22;38661;53.152;5.846;2022-08-19T12:55:23;24.60;71.20
52787;DHT22;38661;53.152;5.846;2022-08-19T12:57:49;24.60;70.90
52787;DHT22;38661;53.152;5.846;2022-08-19T13:00:18;24.50;71.20
52787;DHT22;38661;53.152;5.846;2022-08-19T13:02:48;24.60;71.40
52787;DHT22;38661;53.152;5.846;2022-08-19T13:05:18;24.60;71.50
52787;DHT22;38661;53.152;5.846;2022-08-19T13:07:49;24.70;70.60
52787;DHT22;38661;53.152;5.846;2022-08-19T13:10:18;24.60;70.40
52787;DHT22;38661;53.152;5.846;2022-08-19T13:12:47;24.50;70.00
52787;DHT22;38661;53.152;5.846;2022-08-19T13:15:14;24.50;70.80
52787;DHT22;38661;53.152;5.846;2022-08-19T13:17:40;24.50;71.10
52787;DHT22;38661;53.152;5.846;2022-08-19T13:20:10;24.50;71.50
52787;DHT22;38661;53.152;5.846;2022-08-19T13:22:37;24.40;71.80
52787;DHT22;38661;53.152;5.846;2022-08-19T13:25:06;24.40;71.90
52787;DHT22;38661;53.152;5.846;2022-08-19T13:27:32;24.40;72.10
52787;DHT22;38661;53.152;5.846;2022-08-19T13:29:59;24.40;72.20
52787;DHT22;38661;53.152;5.846;2022-08-19T13:32:43;24.50;72.20
52787;DHT22;38661;53.152;5.846;2022-08-19T13:35:27;24.40;72.50
52787;DHT22;38661;53.152;5.846;2022-08-19T13:37:53;24.40;72.30
52787;DHT22;38661;53.152;5.846;2022-08-19T13:40:21;24.30;72.20
52787;DHT22;38661;53.152;5.846;2022-08-19T13:42:51;24.30;72.50
52787;DHT22;38661;53.152;5.846;2022-08-19T13:45:20;24.20;75.10
52787;DHT22;38661;53.152;5.846;2022-08-19T13:47:50;23.90;77.50
52787;DHT22;38661;53.152;5.846;2022-08-19T13:50:19;23.90;76.90
52787;DHT22;38661;53.152;5.846;2022-08-19T13:52:45;24.00;76.80
52787;DHT22;38661;53.152;5.846;2022-08-19T13:55:13;24.00;76.40
52787;DHT22;38661;53.152;5.846;2022-08-19T13:57:40;23.90;76.40
52787;DHT22;38661;53.152;5.846;2022-08-19T14:00:14;23.90;76.40
52787;DHT22;38661;53.152;5.846;2022-08-19T14:02:41;23.90;76.60
52787;DHT22;38661;53.152;5.846;2022-08-19T14:05:08;24.00;76.60
52787;DHT22;38661;53.152;5.846;2022-08-19T14:07:34;24.00;76.70
52787;DHT22;38661;53.152;5.846;2022-08-19T14:10:02;24.00;77.00
52787;DHT22;38661;53.152;5.846;2022-08-19T14:12:28;24.10;77.00
52787;DHT22;38661;53.152;5.846;2022-08-19T14:14:53;24.10;77.20
52787;DHT22;38661;53.152;5.846;2022-08-19T14:17:19;24.20;76.70
52787;DHT22;38661;53.152;5.846;2022-08-19T14:19:45;24.30;75.40
52787;DHT22;38661;53.152;5.846;2022-08-19T14:22:10;24.30;73.50
52787;DHT22;38661;53.152;5.846;2022-08-19T14:24:39;24.40;72.90
52787;DHT22;38661;53.152;5.846;2022-08-19T14:27:06;24.40;72.40
52787;DHT22;38661;53.152;5.846;2022-08-19T14:29:32;24.60;72.20
52787;DHT22;38661;53.152;5.846;2022-08-19T14:31:58;24.90;71.90
52787;DHT22;38661;53.152;5.846;2022-08-19T14:34:27;25.00;71.30
52787;DHT22;38661;53.152;5.846;2022-08-19T14:36:53;25.10;70.10
52787;DHT22;38661;53.152;5.846;2022-08-19T14:39:18;25.10;70.10
52787;DHT22;38661;53.152;5.846;2022-08-19T14:41:44;25.10;69.10
52787;DHT22;38661;53.152;5.846;2022-08-19T14:44:13;25.40;68.70
52787;DHT22;38661;53.152;5.846;2022-08-19T14:46:39;25.50;66.60
52787;DHT22;38661;53.152;5.846;2022-08-19T14:49:06;25.60;66.40
52787;DHT22;38661;53.152;5.846;2022-08-19T14:51:32;25.60;66.20
52787;DHT22;38661;53.152;5.846;2022-08-19T14:53:58;25.50;66.90
52787;DHT22;38661;53.152;5.846;2022-08-19T14:56:26;25.60;66.90
52787;DHT22;38661;53.152;5.846;2022-08-19T14:58:53;25.50;67.20
52787;DHT22;38661;53.152;5.846;2022-08-19T15:01:21;25.50;66.90
52787;DHT22;38661;53.152;5.846;2022-08-19T15:03:50;25.50;67.20
52787;DHT22;38661;53.152;5.846;2022-08-19T15:06:21;25.70;66.50
52787;DHT22;38661;53.152;5.846;2022-08-19T15:08:48;25.70;66.80
52787;DHT22;38661;53.152;5.846;2022-08-19T15:11:16;25.90;65.90
52787;DHT22;38661;53.152;5.846;2022-08-19T15:13:43;26.00;65.70
52787;DHT22;38661;53.152;5.846;2022-08-19T15:16:10;26.10;65.70
52787;DHT22;38661;53.152;5.846;2022-08-19T15:18:36;26.10;65.80
52787;DHT22;38661;53.152;5.846;2022-08-19T15:21:02;26.20;65.60
52787;DHT22;38661;53.152;5.846;2022-08-19T15:23:29;26.20;64.80
52787;DHT22;38661;53.152;5.846;2022-08-19T15:25:54;26.40;63.80
52787;DHT22;38661;53.152;5.846;2022-08-19T15:28:25;26.50;64.20
52787;DHT22;38661;53.152;5.846;2022-08-19T15:30:51;26.80;64.10
52787;DHT22;38661;53.152;5.846;2022-08-19T15:33:17;26.90;63.60
52787;DHT22;38661;53.152;5.846;2022-08-19T15:35:48;26.90;62.30
52787;DHT22;38661;53.152;5.846;2022-08-19T15:38:16;27.00;62.30
52787;DHT22;38661;53.152;5.846;2022-08-19T15:40:44;27.10;62.50
52787;DHT22;38661;53.152;5.846;2022-08-19T15:43:10;27.00;62.50
52787;DHT22;38661;53.152;5.846;2022-08-19T15:45:36;27.10;62.70